Time;durP1;ratioP1;P1;durP2;ratioP2;P2;SDS_P1;SDS_P2;PMS_P1;PMS_P2;Temp;Humidity;BMP_temperature;BMP_pressure;BME280_temperature;BME280_humidity;BME280_pressure;Samples;Min_cycle;Max_cycle;Signal;HPM_P1;HPM_P2
2022/03/26 00:03:00;;;;;;;;;;;19.40;29.20;;;;;;8363998;28;20301;-46
2022/03/26 00:07:01;;;;;;;;;;;19.40;29.20;;;;;;8364368;28;19924;-45
2022/03/26 00:11:01;;;;;;;;;;;19.50;29.20;;;;;;8364308;28;20360;-49
2022/03/26 00:15:03;;;;;;;;;;;19.40;29.20;;;;;;8364072;28;19912;-47
2022/03/26 00:19:03;;;;;;;;;;;19.40;29.10;;;;;;8364144;28;19917;-46
2022/03/26 00:23:04;;;;;;;;;;;19.40;29.20;;;;;;8363829;28;19917;-47
2022/03/26 00:27:04;;;;;;;;;;;19.40;29.20;;;;;;8363360;28;20293;-47
2022/03/26 00:31:05;;;;;;;;;;;19.40;29.20;;;;;;8363531;28;19947;-48
2022/03/26 00:35:09;;;;;;;;;;;19.40;29.20;;;;;;8363916;28;20263;-46
2022/03/26 00:39:09;;;;;;;;;;;19.40;29.20;;;;;;8357288;28;19925;-47
2022/03/26 00:43:10;;;;;;;;;;;19.40;29.10;;;;;;8363058;28;20374;-46
2022/03/26 00:47:10;;;;;;;;;;;19.30;29.10;;;;;;8362820;28;19913;-46
2022/03/26 00:51:11;;;;;;;;;;;19.30;29.20;;;;;;8363571;28;19921;-50
2022/03/26 00:55:11;;;;;;;;;;;19.30;29.20;;;;;;8363668;28;20011;-51
2022/03/26 00:59:12;;;;;;;;;;;19.30;29.20;;;;;;8362787;28;19924;-48
2022/03/26 01:03:12;;;;;;;;;;;19.30;29.20;;;;;;8363324;28;19916;-46
2022/03/26 01:07:13;;;;;;;;;;;19.30;29.20;;;;;;8362906;28;19948;-48
2022/03/26 01:11:13;;;;;;;;;;;19.30;29.20;;;;;;8362561;28;20388;-47
2022/03/26 01:15:14;;;;;;;;;;;19.30;29.20;;;;;;8363409;28;19923;-47
2022/03/26 01:19:15;;;;;;;;;;;19.20;29.10;;;;;;8362821;28;19921;-46
2022/03/26 01:23:19;;;;;;;;;;;19.20;29.10;;;;;;8362303;28;19924;-47
2022/03/26 01:27:19;;;;;;;;;;;19.20;29.10;;;;;;8362661;28;19998;-47
2022/03/26 01:31:22;;;;;;;;;;;19.20;29.10;;;;;;8362422;28;19921;-47
2022/03/26 01:35:22;;;;;;;;;;;19.20;29.20;;;;;;8362291;28;19955;-46
2022/03/26 01:39:23;;;;;;;;;;;19.20;29.20;;;;;;8362689;28;19921;-48
2022/03/26 01:43:24;;;;;;;;;;;19.20;29.20;;;;;;8362586;28;19924;-47
2022/03/26 01:47:24;;;;;;;;;;;19.20;29.60;;;;;;8361957;28;19959;-48
2022/03/26 01:51:24;;;;;;;;;;;19.20;29.20;;;;;;8362198;28;19978;-49
2022/03/26 01:55:26;;;;;;;;;;;19.20;29.20;;;;;;8367723;28;20440;-48
2022/03/26 01:59:27;;;;;;;;;;;19.10;29.20;;;;;;8367894;28;19948;-46
2022/03/26 02:03:27;;;;;;;;;;;19.20;29.20;;;;;;8368231;28;19916;-47
2022/03/26 02:07:28;;;;;;;;;;;19.10;29.20;;;;;;8368460;28;19917;-47
2022/03/26 02:11:32;;;;;;;;;;;19.10;29.20;;;;;;8337448;28;20377;-47
2022/03/26 02:15:32;;;;;;;;;;;19.10;29.20;;;;;;8335057;28;20386;-51
2022/03/26 02:19:33;;;;;;;;;;;19.10;29.20;;;;;;8334778;28;19917;-50
2022/03/26 02:23:33;;;;;;;;;;;19.10;29.20;;;;;;8334264;28;19917;-46
2022/03/26 02:27:34;;;;;;;;;;;19.10;29.20;;;;;;8334466;28;19986;-46
2022/03/26 02:31:35;;;;;;;;;;;19.10;29.20;;;;;;8334672;28;19948;-46
2022/03/26 02:35:35;;;;;;;;;;;19.00;29.20;;;;;;8333982;28;19924;-48
2022/03/26 02:39:36;;;;;;;;;;;19.00;29.20;;;;;;8334446;28;19917;-47
2022/03/26 02:43:36;;;;;;;;;;;19.00;29.20;;;;;;8333809;28;19921;-47
2022/03/26 02:47:37;;;;;;;;;;;19.00;29.20;;;;;;8366423;28;19924;-48
2022/03/26 02:51:38;;;;;;;;;;;19.00;29.20;;;;;;8367063;28;20431;-46
2022/03/26 02:55:38;;;;;;;;;;;19.00;29.20;;;;;;8366899;28;19925;-47
2022/03/26 02:59:39;;;;;;;;;;;19.00;29.20;;;;;;8366260;28;19923;-46
2022/03/26 03:03:40;;;;;;;;;;;19.00;29.20;;;;;;8366144;28;19924;-47
2022/03/26 03:07:40;;;;;;;;;;;19.00;29.20;;;;;;8366253;28;20302;-47
2022/03/26 03:11:41;;;;;;;;;;;19.00;29.20;;;;;;8365979;28;19921;-47
2022/03/26 03:15:43;;;;;;;;;;;19.00;29.20;;;;;;8366069;28;20420;-46
2022/03/26 03:19:43;;;;;;;;;;;18.90;29.20;;;;;;8365722;28;19920;-47
2022/03/26 03:23:44;;;;;;;;;;;18.90;29.20;;;;;;8365598;28;19939;-47
2022/03/26 03:27:45;;;;;;;;;;;18.90;29.20;;;;;;8365697;28;19928;-46
2022/03/26 03:31:48;;;;;;;;;;;18.90;29.30;;;;;;8365853;28;19931;-50
2022/03/26 03:35:49;;;;;;;;;;;18.90;29.30;;;;;;8364913;28;19917;-49
2022/03/26 03:39:49;;;;;;;;;;;18.90;29.30;;;;;;8365186;28;19920;-50
2022/03/26 03:43:50;;;;;;;;;;;18.90;29.30;;;;;;8365391;28;20019;-47
2022/03/26 03:47:50;;;;;;;;;;;18.90;29.30;;;;;;8364548;28;19924;-47
2022/03/26 03:51:51;;;;;;;;;;;18.90;29.30;;;;;;8365040;28;20007;-46
2022/03/26 03:55:51;;;;;;;;;;;18.90;29.30;;;;;;8364952;28;19921;-48
2022/03/26 03:59:52;;;;;;;;;;;18.90;29.30;;;;;;8364329;28;19916;-47
2022/03/26 04:03:52;;;;;;;;;;;18.90;29.30;;;;;;8364840;28;20007;-51
2022/03/26 04:07:53;;;;;;;;;;;18.80;29.30;;;;;;8364401;28;19944;-50
2022/03/26 04:11:53;;;;;;;;;;;18.80;29.30;;;;;;8364013;28;20321;-47
2022/03/26 04:15:54;;;;;;;;;;;18.80;29.30;;;;;;8363712;28;19923;-48
2022/03/26 04:19:55;;;;;;;;;;;18.80;29.40;;;;;;8364170;28;19920;-47
2022/03/26 04:23:55;;;;;;;;;;;18.70;29.30;;;;;;8363547;28;19916;-47
2022/03/26 04:27:56;;;;;;;;;;;18.80;29.40;;;;;;8363791;28;19920;-48
2022/03/26 04:31:56;;;;;;;;;;;18.80;29.40;;;;;;8363747;28;19925;-47
2022/03/26 04:35:57;;;;;;;;;;;18.80;29.40;;;;;;8363193;28;20008;-47
2022/03/26 04:39:58;;;;;;;;;;;18.70;29.40;;;;;;8363576;28;19928;-47
2022/03/26 04:43:59;;;;;;;;;;;18.70;29.40;;;;;;8363520;28;19912;-46
2022/03/26 04:47:59;;;;;;;;;;;18.70;29.40;;;;;;8363142;28;20328;-47
2022/03/26 04:52:00;;;;;;;;;;;18.70;29.40;;;;;;8363490;28;19931;-49
2022/03/26 04:56:00;;;;;;;;;;;18.70;29.40;;;;;;8363411;28;19921;-49
2022/03/26 05:00:01;;;;;;;;;;;18.70;29.40;;;;;;8362617;28;19916;-49
2022/03/26 05:04:01;;;;;;;;;;;18.70;29.40;;;;;;8363001;28;19917;-46
2022/03/26 05:08:02;;;;;;;;;;;18.70;29.40;;;;;;8362014;28;19986;-46
2022/03/26 05:12:03;;;;;;;;;;;18.70;29.40;;;;;;8362598;28;19921;-48
2022/03/26 05:16:04;;;;;;;;;;;18.70;29.40;;;;;;8362877;28;19917;-51
2022/03/26 05:20:05;;;;;;;;;;;18.70;29.40;;;;;;8362927;28;20364;-48
2022/03/26 05:24:06;;;;;;;;;;;18.70;29.40;;;;;;8362232;28;19921;-50
2022/03/26 05:28:07;;;;;;;;;;;18.70;29.40;;;;;;8365943;28;19971;-50
2022/03/26 05:32:07;;;;;;;;;;;18.70;29.40;;;;;;8369003;28;19984;-46
2022/03/26 05:36:08;;;;;;;;;;;18.70;29.40;;;;;;8369382;28;19940;-47
2022/03/26 05:40:09;;;;;;;;;;;18.70;29.40;;;;;;8368905;28;20003;-47
2022/03/26 05:44:09;;;;;;;;;;;18.70;29.40;;;;;;8368703;28;20004;-46
2022/03/26 05:48:10;;;;;;;;;;;18.70;29.40;;;;;;8368813;28;19924;-46
2022/03/26 05:52:10;;;;;;;;;;;18.70;29.40;;;;;;8368786;28;19976;-46
2022/03/26 05:56:11;;;;;;;;;;;18.70;29.40;;;;;;8368138;28;19927;-48
2022/03/26 06:00:11;;;;;;;;;;;18.70;29.40;;;;;;8368309;28;19959;-49
2022/03/26 06:04:12;;;;;;;;;;;18.60;29.40;;;;;;8361295;28;19963;-51
2022/03/26 06:08:12;;;;;;;;;;;18.60;29.30;;;;;;8334843;28;19920;-46
2022/03/26 06:12:13;;;;;;;;;;;18.60;29.40;;;;;;8335494;28;20012;-47
2022/03/26 06:16:15;;;;;;;;;;;18.60;29.40;;;;;;8334444;28;21536;-48
2022/03/26 06:20:16;;;;;;;;;;;18.60;29.40;;;;;;8334441;28;19913;-46
2022/03/26 06:24:16;;;;;;;;;;;18.60;29.40;;;;;;8334720;28;20008;-47
2022/03/26 06:28:19;;;;;;;;;;;18.60;29.40;;;;;;8334605;28;19921;-47
2022/03/26 06:32:19;;;;;;;;;;;18.70;29.30;;;;;;8334247;28;19995;-51
2022/03/26 06:36:20;;;;;;;;;;;18.80;29.20;;;;;;8334259;28;20015;-46
2022/03/26 06:40:20;;;;;;;;;;;18.90;29.00;;;;;;8333845;28;19967;-47
2022/03/26 06:44:21;;;;;;;;;;;19.00;28.90;;;;;;8333678;28;19918;-47
2022/03/26 06:48:21;;;;;;;;;;;19.10;28.80;;;;;;8334354;28;19920;-47
2022/03/26 06:52:23;;;;;;;;;;;19.20;28.70;;;;;;8334252;28;19929;-46
2022/03/26 06:56:24;;;;;;;;;;;19.10;28.70;;;;;;8333638;28;19921;-46
2022/03/26 07:00:24;;;;;;;;;;;19.00;28.80;;;;;;8333901;28;19924;-46
2022/03/26 07:04:25;;;;;;;;;;;19.00;28.90;;;;;;8333780;28;19928;-48
2022/03/26 07:08:25;;;;;;;;;;;19.00;29.00;;;;;;8332761;28;20282;-46
2022/03/26 07:12:27;;;;;;;;;;;18.90;29.00;;;;;;8333090;28;20433;-45
2022/03/26 07:16:27;;;;;;;;;;;18.90;29.40;;;;;;8333034;28;19932;-49
2022/03/26 07:20:28;;;;;;;;;;;18.90;29.10;;;;;;8332571;28;20007;-47
2022/03/26 07:24:28;;;;;;;;;;;18.80;29.10;;;;;;8333325;28;19975;-49
2022/03/26 07:28:29;;;;;;;;;;;18.90;29.10;;;;;;8332832;28;19913;-48
2022/03/26 07:32:30;;;;;;;;;;;18.80;29.10;;;;;;8332151;28;19976;-46
2022/03/26 07:36:32;;;;;;;;;;;18.80;29.10;;;;;;8332247;28;19971;-47
2022/03/26 07:40:32;;;;;;;;;;;18.90;29.10;;;;;;8331846;28;19921;-47
2022/03/26 07:44:33;;;;;;;;;;;18.90;29.00;;;;;;8331832;28;20405;-48
2022/03/26 07:48:33;;;;;;;;;;;19.00;29.00;;;;;;8314561;28;19920;-48
2022/03/26 07:52:34;;;;;;;;;;;18.90;29.00;;;;;;8330874;28;19933;-45
2022/03/26 07:56:34;;;;;;;;;;;18.90;29.10;;;;;;8331539;28;19921;-47
2022/03/26 08:00:35;;;;;;;;;;;18.90;29.10;;;;;;8331672;28;19957;-48
2022/03/26 08:04:35;;;;;;;;;;;18.90;29.10;;;;;;8330742;28;19917;-47
2022/03/26 08:08:36;;;;;;;;;;;18.80;29.10;;;;;;8331248;28;19924;-47
2022/03/26 08:12:36;;;;;;;;;;;18.80;29.10;;;;;;8331369;28;19932;-46
2022/03/26 08:16:37;;;;;;;;;;;18.80;29.20;;;;;;8331225;28;19928;-46
2022/03/26 08:20:37;;;;;;;;;;;18.80;29.20;;;;;;8330351;28;20389;-48
2022/03/26 08:24:38;;;;;;;;;;;18.80;29.20;;;;;;8330819;28;20289;-48
2022/03/26 08:28:38;;;;;;;;;;;18.80;29.20;;;;;;8331168;28;20285;-47
2022/03/26 08:32:39;;;;;;;;;;;18.90;29.20;;;;;;8330257;28;19932;-48
2022/03/26 08:36:39;;;;;;;;;;;18.80;29.20;;;;;;8330673;28;19917;-49
2022/03/26 08:40:40;;;;;;;;;;;18.90;29.30;;;;;;8330304;28;20281;-46
2022/03/26 08:44:40;;;;;;;;;;;18.80;29.20;;;;;;8329967;28;19986;-48
2022/03/26 08:48:41;;;;;;;;;;;18.80;29.20;;;;;;8330853;28;19920;-48
2022/03/26 08:52:41;;;;;;;;;;;18.90;29.30;;;;;;8330189;28;19932;-46
2022/03/26 08:56:42;;;;;;;;;;;18.90;29.30;;;;;;8330023;28;19921;-47
2022/03/26 09:00:43;;;;;;;;;;;18.90;29.30;;;;;;8330221;28;19990;-46
2022/03/26 09:04:43;;;;;;;;;;;18.90;29.30;;;;;;8329828;28;20366;-46
2022/03/26 09:08:44;;;;;;;;;;;18.90;29.30;;;;;;8329965;28;19991;-49
2022/03/26 09:12:44;;;;;;;;;;;18.90;29.30;;;;;;8329990;28;19925;-46
2022/03/26 09:16:45;;;;;;;;;;;18.90;29.30;;;;;;8330287;28;19927;-49
2022/03/26 09:20:45;;;;;;;;;;;18.90;29.30;;;;;;8329487;28;19921;-46
2022/03/26 09:24:46;;;;;;;;;;;18.90;29.30;;;;;;8329831;28;19917;-47
2022/03/26 09:28:46;;;;;;;;;;;18.90;29.30;;;;;;8329922;28;19952;-50
2022/03/26 09:32:47;;;;;;;;;;;18.90;29.30;;;;;;8329024;28;19925;-49
2022/03/26 09:36:47;;;;;;;;;;;18.90;29.30;;;;;;8329565;28;19917;-48
2022/03/26 09:40:48;;;;;;;;;;;18.90;29.30;;;;;;8329411;28;19921;-46
2022/03/26 09:44:49;;;;;;;;;;;18.90;29.30;;;;;;8329086;28;19934;-47
2022/03/26 09:48:50;;;;;;;;;;;19.00;29.40;;;;;;8329596;28;19913;-47
2022/03/26 09:52:50;;;;;;;;;;;19.00;29.40;;;;;;8329383;28;19925;-47
2022/03/26 09:56:51;;;;;;;;;;;19.00;29.30;;;;;;8329006;28;19925;-48
2022/03/26 10:00:53;;;;;;;;;;;19.00;29.40;;;;;;8329254;28;20436;-48
2022/03/26 10:04:53;;;;;;;;;;;19.00;29.40;;;;;;8329159;28;19921;-48
2022/03/26 10:08:54;;;;;;;;;;;19.00;29.40;;;;;;8328818;28;20366;-46
2022/03/26 10:12:54;;;;;;;;;;;19.00;29.40;;;;;;8328932;28;19948;-48
2022/03/26 10:16:55;;;;;;;;;;;19.00;29.40;;;;;;8334420;28;20352;-46
2022/03/26 10:20:59;;;;;;;;;;;19.00;29.40;;;;;;8334221;28;19921;-47
2022/03/26 10:25:04;;;;;;;;;;;19.10;29.40;;;;;;8334504;28;19921;-47
2022/03/26 10:29:04;;;;;;;;;;;19.10;29.40;;;;;;8334947;28;19917;-48
2022/03/26 10:33:21;;;;;;;;;;;19.00;29.40;;;;;;8333950;28;19975;-45
2022/03/26 10:37:21;;;;;;;;;;;19.10;29.40;;;;;;8334318;28;19924;-46
2022/03/26 10:41:22;;;;;;;;;;;19.10;29.40;;;;;;8333690;28;20294;-46
2022/03/26 10:45:22;;;;;;;;;;;19.10;29.30;;;;;;8334027;28;19999;-46
2022/03/26 10:49:27;;;;;;;;;;;19.10;29.30;;;;;;8334214;28;19975;-46
2022/03/26 10:53:35;;;;;;;;;;;19.20;29.40;;;;;;8333150;28;19987;-46
2022/03/26 10:57:35;;;;;;;;;;;19.20;29.40;;;;;;8333513;28;19921;-47
2022/03/26 11:01:36;;;;;;;;;;;19.20;29.30;;;;;;8333574;28;19971;-48
2022/03/26 11:05:38;;;;;;;;;;;19.20;29.40;;;;;;8332886;28;20374;-47
2022/03/26 11:09:39;;;;;;;;;;;19.20;29.40;;;;;;8356274;28;19913;-46
2022/03/26 11:13:44;;;;;;;;;;;19.20;29.50;;;;;;8366301;28;20396;-47
2022/03/26 11:18:04;;;;;;;;;;;19.30;29.40;;;;;;8365552;28;20312;-49
2022/03/26 11:22:13;;;;;;;;;;;19.30;29.40;;;;;;8365967;28;19917;-47
2022/03/26 11:26:37;;;;;;;;;;;19.40;29.40;;;;;;8365177;28;19966;-50
2022/03/26 11:30:53;;;;;;;;;;;19.40;29.30;;;;;;8365824;28;19999;-46
2022/03/26 11:35:05;;;;;;;;;;;19.50;29.30;;;;;;8365734;28;19964;-46
2022/03/26 11:39:10;;;;;;;;;;;19.50;29.30;;;;;;8365420;28;20334;-50
2022/03/26 11:43:11;;;;;;;;;;;19.50;29.30;;;;;;8365186;28;19917;-49
2022/03/26 11:51:34;;;;;;;;;;;19.60;29.70;;;;;;8370367;28;20015;-49
2022/03/26 11:55:46;;;;;;;;;;;19.60;29.30;;;;;;8364926;28;19921;-46
2022/03/26 11:59:47;;;;;;;;;;;19.50;29.30;;;;;;8364440;28;19924;-47
2022/03/26 12:03:48;;;;;;;;;;;19.60;29.30;;;;;;8364792;28;20338;-48
2022/03/26 12:07:49;;;;;;;;;;;19.60;29.30;;;;;;8364429;28;19924;-46
2022/03/26 12:12:05;;;;;;;;;;;19.60;29.30;;;;;;8363785;28;20274;-47
2022/03/26 12:16:06;;;;;;;;;;;19.60;29.30;;;;;;8364542;28;20250;-47
2022/03/26 12:20:23;;;;;;;;;;;19.60;29.30;;;;;;8364512;28;20376;-46
2022/03/26 12:24:28;;;;;;;;;;;19.60;29.40;;;;;;8363700;28;20011;-46
2022/03/26 12:28:29;;;;;;;;;;;19.60;29.40;;;;;;8364155;28;19917;-46
2022/03/26 12:32:32;;;;;;;;;;;19.60;29.40;;;;;;8363744;28;20370;-47
2022/03/26 12:36:36;;;;;;;;;;;19.60;29.40;;;;;;8363314;28;20328;-48
2022/03/26 12:40:38;;;;;;;;;;;19.60;29.40;;;;;;8364686;28;20424;-49
2022/03/26 12:44:39;;;;;;;;;;;19.60;29.40;;;;;;8364046;28;19966;-47
2022/03/26 12:48:39;;;;;;;;;;;19.60;29.40;;;;;;8363849;28;19971;-46
2022/03/26 12:52:40;;;;;;;;;;;19.60;29.40;;;;;;8363193;28;19925;-49
2022/03/26 12:56:43;;;;;;;;;;;19.60;29.40;;;;;;8362805;28;19921;-46
2022/03/26 13:00:43;;;;;;;;;;;19.70;29.40;;;;;;8363293;28;19920;-46
2022/03/26 13:04:49;;;;;;;;;;;19.70;29.40;;;;;;8363051;28;19924;-46
2022/03/26 13:08:51;;;;;;;;;;;19.70;29.40;;;;;;8362622;28;19923;-46
2022/03/26 13:12:51;;;;;;;;;;;19.70;29.30;;;;;;8363105;28;19925;-45
2022/03/26 13:16:52;;;;;;;;;;;19.70;29.40;;;;;;8362735;28;20289;-47
2022/03/26 13:20:52;;;;;;;;;;;19.70;29.40;;;;;;8362589;28;19920;-48
2022/03/26 13:24:55;;;;;;;;;;;19.70;29.40;;;;;;8362731;28;20278;-46
2022/03/26 13:28:55;;;;;;;;;;;19.70;29.40;;;;;;8362774;28;19962;-47
2022/03/26 13:33:02;;;;;;;;;;;19.80;29.40;;;;;;8362193;28;19978;-48
2022/03/26 13:37:06;;;;;;;;;;;19.80;29.40;;;;;;8362955;28;20000;-47
2022/03/26 13:41:17;;;;;;;;;;;19.80;29.40;;;;;;8362465;28;19913;-47
2022/03/26 13:45:17;;;;;;;;;;;19.80;29.40;;;;;;8362380;28;19920;-48
2022/03/26 13:49:25;;;;;;;;;;;19.80;29.40;;;;;;8366124;28;19987;-47
2022/03/26 13:53:26;;;;;;;;;;;19.80;29.40;;;;;;8368188;28;19925;-47
2022/03/26 13:57:29;;;;;;;;;;;19.70;29.40;;;;;;8368580;28;20377;-46
2022/03/26 14:01:34;;;;;;;;;;;19.80;29.40;;;;;;8368547;28;20392;-47
2022/03/26 14:05:34;;;;;;;;;;;19.80;29.40;;;;;;8368090;28;20301;-46
2022/03/26 14:09:35;;;;;;;;;;;19.80;29.40;;;;;;8354164;28;19917;-46
2022/03/26 14:13:35;;;;;;;;;;;19.80;29.40;;;;;;8335351;28;19929;-45
2022/03/26 14:17:36;;;;;;;;;;;19.80;29.40;;;;;;8334596;28;19917;-45
2022/03/26 14:21:36;;;;;;;;;;;19.80;29.30;;;;;;8334841;28;19913;-46
2022/03/26 14:25:38;;;;;;;;;;;19.80;29.30;;;;;;8335193;28;20003;-45
2022/03/26 14:29:38;;;;;;;;;;;19.80;29.30;;;;;;8334308;28;20263;-45
2022/03/26 14:33:39;;;;;;;;;;;19.80;29.30;;;;;;8334784;28;20013;-46
2022/03/26 14:37:39;;;;;;;;;;;19.80;29.30;;;;;;8334379;28;19921;-48
2022/03/26 14:41:40;;;;;;;;;;;19.80;29.30;;;;;;8333904;28;20543;-49
2022/03/26 14:45:40;;;;;;;;;;;19.80;29.30;;;;;;8334656;28;20384;-48
2022/03/26 14:49:41;;;;;;;;;;;19.80;29.70;;;;;;8334219;28;20010;-47
2022/03/26 14:53:41;;;;;;;;;;;19.90;29.30;;;;;;8333337;28;19925;-48
2022/03/26 14:57:42;;;;;;;;;;;19.90;29.30;;;;;;8333517;28;19921;-46
2022/03/26 15:01:42;;;;;;;;;;;19.90;29.30;;;;;;8333349;28;20290;-50
2022/03/26 15:05:43;;;;;;;;;;;19.90;29.30;;;;;;8333362;28;20329;-50
2022/03/26 15:09:43;;;;;;;;;;;19.90;29.30;;;;;;8333681;28;20367;-47
2022/03/26 15:13:44;;;;;;;;;;;19.90;29.30;;;;;;8333342;28;19929;-46
2022/03/26 15:17:44;;;;;;;;;;;19.90;29.30;;;;;;8332700;28;20003;-47
2022/03/26 15:21:45;;;;;;;;;;;19.90;29.30;;;;;;8333375;28;19921;-48
2022/03/26 15:25:45;;;;;;;;;;;19.90;29.30;;;;;;8333647;28;19924;-50
2022/03/26 15:29:46;;;;;;;;;;;19.90;29.30;;;;;;8332487;28;19967;-47
2022/03/26 15:33:48;;;;;;;;;;;19.90;29.30;;;;;;8332639;28;19925;-47
2022/03/26 15:37:48;;;;;;;;;;;19.90;29.30;;;;;;8332763;28;19917;-48
2022/03/26 15:41:49;;;;;;;;;;;19.90;29.30;;;;;;8332189;28;20374;-48
2022/03/26 15:45:50;;;;;;;;;;;19.90;29.30;;;;;;8332442;28;19967;-46
2022/03/26 15:49:50;;;;;;;;;;;19.90;29.30;;;;;;8332127;28;19971;-46
2022/03/26 15:53:51;;;;;;;;;;;19.90;29.30;;;;;;8331470;28;20437;-47
2022/03/26 15:57:51;;;;;;;;;;;19.90;29.30;;;;;;8331753;28;19921;-47
2022/03/26 16:01:52;;;;;;;;;;;19.90;29.20;;;;;;8331927;28;19956;-47
2022/03/26 16:05:53;;;;;;;;;;;19.90;29.20;;;;;;8331096;28;19917;-46
2022/03/26 16:09:53;;;;;;;;;;;19.90;29.20;;;;;;8331408;28;19917;-46
2022/03/26 16:13:54;;;;;;;;;;;19.90;29.30;;;;;;8330641;28;19925;-46
2022/03/26 16:17:54;;;;;;;;;;;19.90;29.20;;;;;;8330749;28;19929;-46
2022/03/26 16:21:55;;;;;;;;;;;19.90;29.20;;;;;;8331253;28;20019;-45
2022/03/26 16:25:56;;;;;;;;;;;19.90;29.20;;;;;;8331164;28;19917;-46
2022/03/26 16:29:56;;;;;;;;;;;19.90;29.20;;;;;;8330395;28;19917;-45
2022/03/26 16:33:57;;;;;;;;;;;19.90;29.20;;;;;;8330676;28;20004;-45
2022/03/26 16:37:58;;;;;;;;;;;19.90;29.20;;;;;;8330919;28;19924;-46
2022/03/26 16:41:58;;;;;;;;;;;19.90;29.20;;;;;;8330136;28;20445;-46
2022/03/26 16:45:59;;;;;;;;;;;19.90;29.20;;;;;;8330570;28;20019;-46
2022/03/26 16:49:59;;;;;;;;;;;19.90;29.20;;;;;;8330719;28;19996;-48
2022/03/26 16:54:00;;;;;;;;;;;19.90;29.20;;;;;;8329801;28;19979;-47
2022/03/26 16:58:03;;;;;;;;;;;19.90;29.20;;;;;;8330569;28;19925;-46
2022/03/26 17:02:04;;;;;;;;;;;19.90;29.20;;;;;;8330443;28;19921;-46
2022/03/26 17:06:07;;;;;;;;;;;19.90;29.20;;;;;;8347833;28;19916;-47
2022/03/26 17:10:08;;;;;;;;;;;19.90;29.20;;;;;;8363131;28;20324;-46
2022/03/26 17:14:08;;;;;;;;;;;19.90;29.20;;;;;;8362314;28;19932;-46
2022/03/26 17:18:08;;;;;;;;;;;19.90;29.20;;;;;;8362829;28;19924;-46
2022/03/26 17:22:09;;;;;;;;;;;19.90;29.20;;;;;;8363163;28;20377;-45
2022/03/26 17:26:10;;;;;;;;;;;19.90;29.20;;;;;;8369293;28;19917;-46
2022/03/26 17:30:10;;;;;;;;;;;19.90;29.30;;;;;;8369318;28;19923;-46
2022/03/26 17:34:11;;;;;;;;;;;19.90;29.30;;;;;;8369450;28;20308;-46
2022/03/26 17:38:11;;;;;;;;;;;19.90;29.30;;;;;;8368856;28;19917;-47
2022/03/26 17:42:14;;;;;;;;;;;19.90;29.30;;;;;;8369155;28;19923;-46
2022/03/26 17:46:14;;;;;;;;;;;19.80;29.20;;;;;;8368941;28;20348;-47
2022/03/26 17:50:15;;;;;;;;;;;19.90;29.30;;;;;;8368320;28;19944;-46
2022/03/26 17:54:16;;;;;;;;;;;19.80;29.30;;;;;;8368904;28;19925;-47
2022/03/26 17:58:16;;;;;;;;;;;19.80;29.30;;;;;;8368393;28;19931;-49
2022/03/26 18:02:17;;;;;;;;;;;19.80;29.30;;;;;;8368201;28;19913;-46
2022/03/26 18:06:18;;;;;;;;;;;19.80;29.30;;;;;;8368507;28;19921;-46
2022/03/26 18:10:18;;;;;;;;;;;19.90;29.30;;;;;;8368315;28;20384;-47
2022/03/26 18:14:18;;;;;;;;;;;19.80;29.30;;;;;;8367824;28;19924;-47
2022/03/26 18:18:19;;;;;;;;;;;19.80;29.20;;;;;;8368047;28;19923;-47
2022/03/26 18:22:19;;;;;;;;;;;19.80;29.20;;;;;;8368278;28;19935;-46
2022/03/26 18:26:20;;;;;;;;;;;19.80;29.30;;;;;;8367423;28;19916;-50
2022/03/26 18:30:21;;;;;;;;;;;19.80;29.20;;;;;;8368093;28;19916;-46
2022/03/26 18:34:22;;;;;;;;;;;19.80;29.20;;;;;;8366601;28;19932;-44
2022/03/26 18:38:22;;;;;;;;;;;19.80;29.20;;;;;;8366939;28;19932;-46
2022/03/26 18:42:23;;;;;;;;;;;19.80;29.20;;;;;;8367625;28;19996;-46
2022/03/26 18:46:23;;;;;;;;;;;19.80;29.20;;;;;;8367335;28;19937;-46
2022/03/26 18:50:24;;;;;;;;;;;19.80;29.20;;;;;;8366595;28;20051;-46
2022/03/26 18:54:24;;;;;;;;;;;19.80;29.20;;;;;;8366770;28;19925;-48
2022/03/26 18:58:25;;;;;;;;;;;19.70;29.20;;;;;;8366642;28;19920;-46
2022/03/26 19:02:25;;;;;;;;;;;19.80;29.20;;;;;;8366335;28;19936;-47
2022/03/26 19:06:26;;;;;;;;;;;19.80;29.20;;;;;;8366454;28;19921;-47
2022/03/26 19:10:26;;;;;;;;;;;19.80;29.20;;;;;;8366499;28;20317;-47
2022/03/26 19:14:27;;;;;;;;;;;19.80;29.20;;;;;;8365745;28;20011;-48
2022/03/26 19:18:28;;;;;;;;;;;19.70;29.10;;;;;;8366460;28;19920;-47
2022/03/26 19:22:28;;;;;;;;;;;19.70;29.20;;;;;;8366468;28;19917;-49
2022/03/26 19:26:29;;;;;;;;;;;19.70;29.20;;;;;;8365499;28;19990;-51
2022/03/26 19:30:33;;;;;;;;;;;19.70;29.20;;;;;;8366136;28;19947;-49
2022/03/26 19:34:34;;;;;;;;;;;19.70;29.20;;;;;;8365739;28;20008;-48
2022/03/26 19:38:34;;;;;;;;;;;19.70;29.20;;;;;;8365133;28;19917;-49
2022/03/26 19:42:35;;;;;;;;;;;19.70;29.10;;;;;;8365485;28;19924;-46
2022/03/26 19:46:36;;;;;;;;;;;19.70;29.20;;;;;;8365108;28;19916;-46
2022/03/26 19:50:36;;;;;;;;;;;19.70;29.20;;;;;;8364729;28;20297;-47
2022/03/26 19:54:37;;;;;;;;;;;19.70;29.10;;;;;;8364803;28;20382;-47
2022/03/26 19:58:38;;;;;;;;;;;19.70;29.10;;;;;;8365094;28;19967;-47
2022/03/26 20:02:39;;;;;;;;;;;19.70;29.10;;;;;;8364494;28;19917;-51
2022/03/26 20:06:40;;;;;;;;;;;19.70;29.20;;;;;;8358061;28;19918;-47
2022/03/26 20:10:41;;;;;;;;;;;19.70;29.20;;;;;;8331653;28;20289;-48
2022/03/26 20:14:41;;;;;;;;;;;19.70;29.10;;;;;;8330844;28;19925;-50
2022/03/26 20:18:42;;;;;;;;;;;19.70;29.10;;;;;;8331886;28;19974;-48
2022/03/26 20:22:43;;;;;;;;;;;19.70;29.30;;;;;;8331167;28;19917;-46
2022/03/26 20:26:46;;;;;;;;;;;19.70;29.10;;;;;;8330430;28;19936;-48
2022/03/26 20:30:47;;;;;;;;;;;19.70;29.10;;;;;;8331096;28;19921;-47
2022/03/26 20:34:47;;;;;;;;;;;19.70;29.10;;;;;;8330842;28;20350;-48
2022/03/26 20:38:48;;;;;;;;;;;19.70;29.10;;;;;;8330535;28;19914;-48
2022/03/26 20:42:48;;;;;;;;;;;19.70;29.10;;;;;;8330913;28;19952;-47
2022/03/26 20:46:49;;;;;;;;;;;19.70;29.00;;;;;;8330620;28;19917;-47
2022/03/26 20:50:49;;;;;;;;;;;19.70;29.00;;;;;;8330032;28;19917;-52
2022/03/26 20:54:50;;;;;;;;;;;19.70;29.10;;;;;;8330531;28;20017;-48
2022/03/26 20:58:50;;;;;;;;;;;19.70;29.00;;;;;;8330251;28;20366;-48
2022/03/26 21:02:52;;;;;;;;;;;19.60;29.00;;;;;;8329754;28;20369;-46
2022/03/26 21:06:53;;;;;;;;;;;19.60;28.90;;;;;;8330190;28;19953;-49
2022/03/26 21:10:53;;;;;;;;;;;19.60;29.00;;;;;;8330287;28;20366;-48
2022/03/26 21:14:53;;;;;;;;;;;19.60;28.90;;;;;;8329441;28;20378;-46
2022/03/26 21:18:54;;;;;;;;;;;19.60;28.90;;;;;;8330443;28;20001;-48
2022/03/26 21:22:57;;;;;;;;;;;19.60;28.90;;;;;;8329907;28;19971;-48
2022/03/26 21:26:58;;;;;;;;;;;19.60;28.90;;;;;;8329301;28;19924;-47
2022/03/26 21:30:58;;;;;;;;;;;19.60;28.90;;;;;;8329838;28;20080;-47
2022/03/26 21:34:59;;;;;;;;;;;19.60;28.90;;;;;;8329660;28;19925;-47
2022/03/26 21:38:59;;;;;;;;;;;19.60;28.90;;;;;;8329315;28;20275;-47
2022/03/26 21:43:01;;;;;;;;;;;19.60;28.80;;;;;;8329695;28;19918;-47
2022/03/26 21:47:02;;;;;;;;;;;19.60;28.80;;;;;;8329595;28;19921;-47
2022/03/26 21:51:02;;;;;;;;;;;19.60;28.80;;;;;;8328950;28;19929;-48
2022/03/26 21:55:03;;;;;;;;;;;19.60;28.80;;;;;;8329657;28;20011;-47
2022/03/26 21:59:04;;;;;;;;;;;19.60;28.80;;;;;;8329713;28;19913;-47
2022/03/26 22:03:05;;;;;;;;;;;19.60;28.90;;;;;;8328684;28;19917;-47
2022/03/26 22:07:05;;;;;;;;;;;19.60;28.90;;;;;;8328975;28;19918;-46
2022/03/26 22:11:05;;;;;;;;;;;19.60;28.80;;;;;;8332121;28;20270;-50
2022/03/26 22:15:06;;;;;;;;;;;19.60;28.80;;;;;;8334464;28;20429;-49
2022/03/26 22:19:07;;;;;;;;;;;19.50;28.80;;;;;;8335053;28;19963;-48
2022/03/26 22:23:08;;;;;;;;;;;19.50;28.80;;;;;;8342311;28;19995;-46
2022/03/26 22:27:08;;;;;;;;;;;19.50;28.80;;;;;;8366198;28;19917;-46
2022/03/26 22:31:09;;;;;;;;;;;19.60;28.80;;;;;;8367545;28;19916;-47
2022/03/26 22:35:11;;;;;;;;;;;19.50;28.70;;;;;;8367095;28;20012;-46
2022/03/26 22:39:11;;;;;;;;;;;19.50;28.80;;;;;;8367883;28;20296;-46
2022/03/26 22:43:14;;;;;;;;;;;19.50;28.80;;;;;;8367305;28;19916;-46
2022/03/26 22:47:14;;;;;;;;;;;19.50;28.70;;;;;;8366559;28;19924;-47
2022/03/26 22:51:15;;;;;;;;;;;19.50;28.70;;;;;;8367279;28;19921;-48
2022/03/26 22:55:16;;;;;;;;;;;19.50;28.80;;;;;;8366932;28;19932;-47
2022/03/26 22:59:17;;;;;;;;;;;19.50;28.70;;;;;;8366628;28;19913;-46
2022/03/26 23:03:17;;;;;;;;;;;19.50;28.80;;;;;;8365389;28;19921;-47
2022/03/26 23:07:17;;;;;;;;;;;19.50;28.70;;;;;;8366587;28;20008;-47
2022/03/26 23:11:18;;;;;;;;;;;19.50;28.70;;;;;;8364703;28;20004;-47
2022/03/26 23:15:19;;;;;;;;;;;19.50;28.70;;;;;;8366432;28;19951;-49
2022/03/26 23:19:19;;;;;;;;;;;19.50;28.70;;;;;;8366335;28;20019;-51
2022/03/26 23:23:20;;;;;;;;;;;19.50;28.70;;;;;;8364840;28;19917;-46
2022/03/26 23:27:20;;;;;;;;;;;19.50;28.70;;;;;;8365812;28;19917;-46